Latest Weather Observations for Esperance Harbour

IDW60801

Issued at 8:33 am WST Monday 23 October 2017 (issued every 30 minutes, with the page automatically refreshed every 10 minutes)

About weather observations | Map of weather stations | Latest weather observations for WA | Other Formats
Station Details ID: 109504 Name: ESPERANCE NTC AWS Lat: -33.87 Lon: 121.90 Height: 0.0 m
Data from the previous 72 hours. | See also: Recent months for locations in Western Australia
Date/Time
WST
Temp
°C
App
Temp
°C
Dew
Point
°C
Rel
Hum
%
Delta-T
°C
Wind Press
QNH
hPa
Press
MSL
hPa
Rain since
9am
mm
Dir  Spd
km/h
Gust
km/h
Spd
kts
Gust
kts
23/08:30am 16.5 - - - - - - - - - 1012.1 1012.1 -
23/08:00am 15.6 - - - - - - - - - 1012.1 1012.1 -
23/07:30am 15.2 - - - - - - - - - 1011.9 1011.9 -
23/07:00am 15.0 - - - - - - - - - 1011.9 1011.9 -
23/06:30am 14.5 - - - - - - - - - 1011.8 1011.8 -
23/06:00am 13.8 - - - - - - - - - 1011.5 1011.5 -
23/05:30am 14.2 - - - - - - - - - 1011.4 1011.4 -
23/05:00am 14.4 - - - - - - - - - 1011.1 1011.1 -
23/04:30am 14.5 - - - - - - - - - 1011.0 1011.0 -
23/04:00am 14.7 - - - - - - - - - 1011.0 1011.0 -
23/03:30am 15.5 - - - - - - - - - 1010.8 1010.8 -
23/03:00am 15.7 - - - - - - - - - 1010.8 1010.8 -
23/02:30am 15.8 - - - - - - - - - 1010.8 1010.8 -
23/02:00am 16.1 - - - - - - - - - 1010.9 1010.9 -
23/01:30am 16.5 - - - - - - - - - 1011.1 1011.1 -
23/01:00am 16.7 - - - - - - - - - 1011.1 1011.1 -
23/12:30am 16.9 - - - - - - - - - 1011.5 1011.5 -
23/12:00am 16.9 - - - - - - - - - 1011.9 1011.9 -
 
Date/Time
WST
Temp
°C
App
Temp
°C
Dew
Point
°C
Rel
Hum
%
Delta-T
°C
Wind Press
QNH
hPa
Press
MSL
hPa
Rain since
9am
mm
Dir  Spd
km/h
Gust
km/h
Spd
kts
Gust
kts
22/11:30pm 16.9 - - - - - - - - - 1012.4 1012.4 -
22/11:00pm 16.8 - - - - - - - - - 1012.7 1012.7 -
22/10:30pm 16.9 - - - - - - - - - 1012.9 1012.9 -
22/10:00pm 17.0 - - - - - - - - - 1013.3 1013.3 -
22/09:30pm 17.2 - - - - - - - - - 1013.4 1013.4 -
22/09:00pm 17.1 - - - - - - - - - 1013.3 1013.3 -
22/08:30pm 16.9 - - - - - - - - - 1013.3 1013.3 -
22/08:00pm 17.1 - - - - - - - - - 1013.4 1013.4 -
22/07:30pm 17.0 - - - - - - - - - 1013.4 1013.4 -
22/07:00pm 17.4 - - - - - - - - - 1013.2 1013.2 -
22/06:30pm 17.6 - - - - - - - - - 1012.5 1012.5 -
22/06:00pm 17.9 - - - - - - - - - 1012.1 1012.1 -
22/05:30pm 17.9 - - - - - - - - - 1011.5 1011.5 -
22/05:00pm 17.8 - - - - - - - - - 1011.0 1011.0 -
22/04:30pm 17.2 - - - - - - - - - 1011.2 1011.2 -
22/04:00pm 17.1 - - - - - - - - - 1011.5 1011.5 -
22/03:30pm 17.0 - - - - - - - - - 1010.7 1010.7 -
22/03:28pm 17.0 - - - - - - - - - 1010.9 1010.9 -
22/03:00pm 16.5 - - - - - - - - - 1013.1 1013.1 -
22/02:30pm 16.1 - - - - - - - - - 1013.0 1013.0 -
22/02:00pm 16.0 - - - - - - - - - 1014.7 1014.7 -
22/01:30pm 16.1 - - - - - - - - - 1016.3 1016.3 -
22/01:00pm 16.1 - - - - - - - - - 1016.9 1016.9 -
22/12:30pm 16.5 - - - - - - - - - 1014.9 1014.9 -
22/12:00pm 16.6 - - - - - - - - - 1013.3 1013.3 -
22/11:30am 16.2 - - - - - - - - - 1014.5 1014.5 -
22/11:00am 15.7 - - - - - - - - - 1015.0 1015.0 -
22/10:30am 15.4 - - - - - - - - - 1015.8 1015.8 -
22/10:20am 15.5 - - - - - - - - - 1016.8 1016.8 -
22/10:00am 15.4 - - - - - - - - - 1018.8 1018.8 -
22/09:30am 15.8 - - - - - - - - - 1020.3 1020.3 -
22/09:00am 15.7 - - - - - - - - - 1021.2 1021.1 -
22/08:30am 15.9 - - - - - - - - - 1020.5 1020.5 -
22/08:00am 15.9 - - - - - - - - - 1020.6 1020.6 -
22/07:30am 15.8 - - - - - - - - - 1020.7 1020.7 -
22/07:00am 15.6 - - - - - - - - - 1020.1 1020.1 -
22/06:30am 15.7 - - - - - - - - - 1020.5 1020.5 -
22/06:00am 16.0 - - - - - - - - - 1020.3 1020.3 -
22/05:30am 16.3 - - - - - - - - - 1019.7 1019.7 -
22/05:00am 16.2 - - - - - - - - - 1018.5 1018.5 -
22/04:30am 16.4 - - - - - - - - - 1018.3 1018.3 -
22/04:00am 16.6 - - - - - - - - - 1018.3 1018.3 -
22/03:30am 16.6 - - - - - - - - - 1018.4 1018.4 -
22/03:00am 16.7 - - - - - - - - - 1018.3 1018.3 -
22/02:30am 16.6 - - - - - - - - - 1018.0 1018.0 -
22/02:00am 16.7 - - - - - - - - - 1018.2 1018.2 -
22/01:30am 16.9 - - - - - - - - - 1019.0 1019.0 -
22/01:00am 16.8 - - - - - - - - - 1019.3 1019.3 -
22/12:30am 16.4 - - - - - - - - - 1019.3 1019.3 -
22/12:00am 16.2 - - - - - - - - - 1019.7 1019.7 -
 
Date/Time
WST
Temp
°C
App
Temp
°C
Dew
Point
°C
Rel
Hum
%
Delta-T
°C
Wind Press
QNH
hPa
Press
MSL
hPa
Rain since
9am
mm
Dir  Spd
km/h
Gust
km/h
Spd
kts
Gust
kts
21/11:30pm 16.2 - - - - - - - - - 1020.0 1020.0 -
21/11:00pm 16.3 - - - - - - - - - 1020.3 1020.3 -
21/10:30pm 16.4 - - - - - - - - - 1021.2 1021.1 -
21/10:00pm 16.5 - - - - - - - - - 1021.7 1021.6 -
21/09:30pm 16.8 - - - - - - - - - 1022.2 1022.1 -
21/09:00pm 16.9 - - - - - - - - - 1022.5 1022.4 -
21/08:30pm 16.8 - - - - - - - - - 1022.9 1022.8 -
21/08:00pm 17.1 - - - - - - - - - 1023.2 1023.1 -
21/07:30pm 17.2 - - - - - - - - - 1022.7 1022.6 -
21/07:00pm 17.4 - - - - - - - - - 1022.5 1022.4 -
21/06:30pm 17.7 - - - - - - - - - 1022.3 1022.2 -
21/06:00pm 17.9 - - - - - - - - - 1021.5 1021.4 -
21/05:30pm 18.0 - - - - - - - - - 1021.3 1021.2 -
21/05:00pm 18.4 - - - - - - - - - 1021.3 1021.2 -
21/04:30pm 18.8 - - - - - - - - - 1021.6 1021.5 -
21/04:00pm 19.9 - - - - - - - - - 1021.9 1021.8 -
21/03:30pm 20.6 - - - - - - - - - 1022.3 1022.2 -
21/03:00pm 20.6 - - - - - - - - - 1022.7 1022.6 -
21/02:30pm 21.0 - - - - - - - - - 1022.9 1022.8 -
21/02:00pm 21.3 - - - - - - - - - 1023.3 1023.2 -
21/01:30pm 20.7 - - - - - - - - - 1023.5 1023.4 -
21/01:00pm 20.5 - - - - - - - - - 1023.6 1023.5 -
21/12:30pm 20.8 - - - - - - - - - 1024.0 1023.9 -
21/12:00pm 22.8 - - - - - - - - - 1024.6 1024.5 -
21/11:30am 21.7 - - - - - - - - - 1025.1 1025.0 -
21/11:00am 20.6 - - - - - - - - - 1025.6 1025.5 -
21/10:30am 19.9 - - - - - - - - - 1026.2 1026.1 -
21/10:00am 18.9 - - - - - - - - - 1026.5 1026.4 -
21/09:30am 17.8 - - - - - - - - - 1027.1 1027.0 -
21/09:00am 16.7 - - - - - - - - - 1027.3 1027.2 -
21/08:30am 15.4 - - - - - - - - - 1027.8 1027.7 -
21/08:00am 14.6 - - - - - - - - - 1027.8 1027.7 -
21/07:30am 14.0 - - - - - - - - - 1028.0 1027.9 -
21/07:00am 13.2 - - - - - - - - - 1028.1 1028.0 -
21/06:30am 13.1 - - - - - - - - - 1028.3 1028.2 -
21/06:00am 12.9 - - - - - - - - - 1028.3 1028.2 -
21/05:30am 12.7 - - - - - - - - - 1028.3 1028.2 -
21/05:00am 12.8 - - - - - - - - - 1028.1 1028.0 -
21/04:30am 12.9 - - - - - - - - - 1027.8 1027.7 -
21/04:00am 13.1 - - - - - - - - - 1027.8 1027.7 -
21/03:30am 13.4 - - - - - - - - - 1027.7 1027.6 -
21/03:00am 13.5 - - - - - - - - - 1027.8 1027.7 -
21/02:30am 13.4 - - - - - - - - - 1028.1 1028.0 -
21/02:00am 13.7 - - - - - - - - - 1028.4 1028.3 -
21/01:30am 13.8 - - - - - - - - - 1028.5 1028.4 -
21/01:00am 13.9 - - - - - - - - - 1028.6 1028.5 -
21/12:30am 14.1 - - - - - - - - - 1028.7 1028.6 -
21/12:00am 14.1 - - - - - - - - - 1028.8 1028.7 -
 
Date/Time
WST
Temp
°C
App
Temp
°C
Dew
Point
°C
Rel
Hum
%
Delta-T
°C
Wind Press
QNH
hPa
Press
MSL
hPa
Rain since
9am
mm
Dir  Spd
km/h
Gust
km/h
Spd
kts
Gust
kts
20/11:30pm 14.5 - - - - - - - - - 1028.9 1028.8 -
20/11:00pm 15.0 - - - - - - - - - 1029.2 1029.1 -
20/10:30pm 14.9 - - - - - - - - - 1029.3 1029.2 -
20/10:00pm 15.1 - - - - - - - - - 1029.4 1029.3 -
20/09:30pm 15.1 - - - - - - - - - 1029.4 1029.3 -
20/09:00pm 15.5 - - - - - - - - - 1029.3 1029.2 -
20/08:30pm 15.6 - - - - - - - - - 1029.5 1029.4 -
20/08:00pm 15.9 - - - - - - - - - 1029.4 1029.3 -
20/07:30pm 16.3 - - - - - - - - - 1029.1 1029.0 -
20/07:00pm 16.7 - - - - - - - - - 1028.5 1028.4 -
20/06:30pm 16.9 - - - - - - - - - 1028.1 1028.0 -
20/06:00pm 17.0 - - - - - - - - - 1027.9 1027.8 -
20/05:30pm 17.3 - - - - - - - - - 1027.4 1027.3 -
20/05:00pm 18.1 - - - - - - - - - 1027.2 1027.1 -
20/04:30pm 18.6 - - - - - - - - - 1027.0 1026.9 -
20/04:00pm 19.3 - - - - - - - - - 1027.2 1027.1 -
20/03:30pm 19.6 - - - - - - - - - 1027.5 1027.4 -
20/03:00pm 19.2 - - - - - - - - - 1027.6 1027.5 -
20/02:30pm 19.0 - - - - - - - - - 1027.8 1027.7 -
20/02:00pm 19.6 - - - - - - - - - 1028.1 1028.0 -
20/01:30pm 19.2 - - - - - - - - - 1028.5 1028.4 -
20/01:00pm 18.9 - - - - - - - - - 1028.8 1028.7 -
20/12:30pm 19.0 - - - - - - - - - 1029.3 1029.2 -
20/12:00pm 19.2 - - - - - - - - - 1029.7 1029.6 -
20/11:30am 19.1 - - - - - - - - - 1030.1 1030.0 -
20/11:00am 19.6 - - - - - - - - - 1030.6 1030.5 -
20/10:30am 18.6 - - - - - - - - - 1031.2 1031.1 -
20/10:00am 17.9 - - - - - - - - - 1031.7 1031.6 -
20/09:30am 17.1 - - - - - - - - - 1032.2 1032.1 -
20/09:00am 15.9 - - - - - - - - - 1032.3 1032.2 -

Other Formats:

Comma delimited format used in spreadsheet applications
http://www.bom.gov.au/fwo/IDW60801/IDW60801.95648.axf

JavaScript Object Notation format (JSON) in row-major order
http://www.bom.gov.au/fwo/IDW60801/IDW60801.95648.json